sensor_id;sensor_type;location;lat;lon;timestamp;temperature;humidity
64961;SHT31;51487;52.266;10.542;2022-10-16T00:01:27;14.54;95.32
64961;SHT31;51487;52.266;10.542;2022-10-16T00:03:54;14.49;95.24
64961;SHT31;51487;52.266;10.542;2022-10-16T00:06:21;14.48;95.28
64961;SHT31;51487;52.266;10.542;2022-10-16T00:08:48;14.49;95.37
64961;SHT31;51487;52.266;10.542;2022-10-16T00:11:21;14.42;95.25
64961;SHT31;51487;52.266;10.542;2022-10-16T00:13:50;14.41;94.94
64961;SHT31;51487;52.266;10.542;2022-10-16T00:16:17;14.52;95.84
64961;SHT31;51487;52.266;10.542;2022-10-16T00:18:43;14.44;95.93
64961;SHT31;51487;52.266;10.542;2022-10-16T00:21:14;14.37;95.36
64961;SHT31;51487;52.266;10.542;2022-10-16T00:23:40;14.33;95.16
64961;SHT31;51487;52.266;10.542;2022-10-16T00:26:11;14.33;95.48
64961;SHT31;51487;52.266;10.542;2022-10-16T00:28:37;14.33;95.39
64961;SHT31;51487;52.266;10.542;2022-10-16T00:31:07;14.34;95.44
64961;SHT31;51487;52.266;10.542;2022-10-16T00:33:34;14.31;95.23
64961;SHT31;51487;52.266;10.542;2022-10-16T00:36:01;14.28;95.08
64961;SHT31;51487;52.266;10.542;2022-10-16T00:38:27;14.33;94.95
64961;SHT31;51487;52.266;10.542;2022-10-16T00:40:53;14.34;95.20
64961;SHT31;51487;52.266;10.542;2022-10-16T00:43:42;14.35;95.44
64961;SHT31;51487;52.266;10.542;2022-10-16T00:46:29;14.35;96.03
64961;SHT31;51487;52.266;10.542;2022-10-16T00:49:23;14.30;95.01
64961;SHT31;51487;52.266;10.542;2022-10-16T00:51:52;14.28;95.04
64961;SHT31;51487;52.266;10.542;2022-10-16T00:54:26;14.30;95.49
64961;SHT31;51487;52.266;10.542;2022-10-16T00:56:54;14.37;95.56
64961;SHT31;51487;52.266;10.542;2022-10-16T01:01:53;14.34;95.16
64961;SHT31;51487;52.266;10.542;2022-10-16T01:04:19;14.37;94.91
64961;SHT31;51487;52.266;10.542;2022-10-16T01:10:31;14.51;94.76
64961;SHT31;51487;52.266;10.542;2022-10-16T01:13:41;14.54;94.56
64961;SHT31;51487;52.266;10.542;2022-10-16T01:16:34;14.54;95.12
64961;SHT31;51487;52.266;10.542;2022-10-16T01:19:13;14.47;94.36
64961;SHT31;51487;52.266;10.542;2022-10-16T01:21:44;14.48;94.64
64961;SHT31;51487;52.266;10.542;2022-10-16T01:24:45;14.45;94.85
64961;SHT31;51487;52.266;10.542;2022-10-16T01:27:25;14.42;94.54
64961;SHT31;51487;52.266;10.542;2022-10-16T01:30:23;14.44;94.58
64961;SHT31;51487;52.266;10.542;2022-10-16T01:32:58;14.42;94.51
64961;SHT31;51487;52.266;10.542;2022-10-16T01:35:33;14.41;94.23
64961;SHT31;51487;52.266;10.542;2022-10-16T01:38:16;14.42;94.04
64961;SHT31;51487;52.266;10.542;2022-10-16T01:40:50;14.42;93.77
64961;SHT31;51487;52.266;10.542;2022-10-16T01:43:28;14.42;93.74
64961;SHT31;51487;52.266;10.542;2022-10-16T01:45:57;14.41;93.87
64961;SHT31;51487;52.266;10.542;2022-10-16T01:48:24;14.41;93.66
64961;SHT31;51487;52.266;10.542;2022-10-16T01:51:08;14.40;93.62
64961;SHT31;51487;52.266;10.542;2022-10-16T01:53:36;14.37;93.90
64961;SHT31;51487;52.266;10.542;2022-10-16T01:56:06;14.33;93.70
64961;SHT31;51487;52.266;10.542;2022-10-16T01:58:39;14.34;93.75
64961;SHT31;51487;52.266;10.542;2022-10-16T02:01:08;14.40;94.17
64961;SHT31;51487;52.266;10.542;2022-10-16T02:03:40;14.31;93.88
64961;SHT31;51487;52.266;10.542;2022-10-16T02:06:07;14.28;93.91
64961;SHT31;51487;52.266;10.542;2022-10-16T02:08:35;14.34;94.39
64961;SHT31;51487;52.266;10.542;2022-10-16T02:11:02;14.30;94.32
64961;SHT31;51487;52.266;10.542;2022-10-16T02:13:34;14.30;94.58
64961;SHT31;51487;52.266;10.542;2022-10-16T02:16:01;14.30;94.06
64961;SHT31;51487;52.266;10.542;2022-10-16T02:18:27;14.33;94.28
64961;SHT31;51487;52.266;10.542;2022-10-16T02:23:37;14.40;94.50
64961;SHT31;51487;52.266;10.542;2022-10-16T02:26:13;14.34;94.15
64961;SHT31;51487;52.266;10.542;2022-10-16T02:28:45;14.33;94.09
64961;SHT31;51487;52.266;10.542;2022-10-16T02:31:18;14.33;94.18
64961;SHT31;51487;52.266;10.542;2022-10-16T02:33:46;14.38;94.26
64961;SHT31;51487;52.266;10.542;2022-10-16T02:36:12;14.35;94.01
64961;SHT31;51487;52.266;10.542;2022-10-16T02:38:39;14.40;93.88
64961;SHT31;51487;52.266;10.542;2022-10-16T02:41:05;14.41;93.97
64961;SHT31;51487;52.266;10.542;2022-10-16T02:43:31;14.48;93.57
64961;SHT31;51487;52.266;10.542;2022-10-16T02:45:58;14.48;93.31
64961;SHT31;51487;52.266;10.542;2022-10-16T02:48:24;14.51;93.24
64961;SHT31;51487;52.266;10.542;2022-10-16T02:50:50;14.48;93.57
64961;SHT31;51487;52.266;10.542;2022-10-16T02:53:16;14.44;93.22
64961;SHT31;51487;52.266;10.542;2022-10-16T02:55:41;14.47;93.18
64961;SHT31;51487;52.266;10.542;2022-10-16T02:58:07;14.42;93.14
64961;SHT31;51487;52.266;10.542;2022-10-16T03:00:32;14.40;93.46
64961;SHT31;51487;52.266;10.542;2022-10-16T03:02:58;14.34;93.21
64961;SHT31;51487;52.266;10.542;2022-10-16T03:05:23;14.38;93.52
64961;SHT31;51487;52.266;10.542;2022-10-16T03:07:49;14.35;93.51
64961;SHT31;51487;52.266;10.542;2022-10-16T03:10:14;14.34;93.42
64961;SHT31;51487;52.266;10.542;2022-10-16T03:12:40;14.31;93.51
64961;SHT31;51487;52.266;10.542;2022-10-16T03:15:06;14.37;94.17
64961;SHT31;51487;52.266;10.542;2022-10-16T03:17:32;14.31;93.62
64961;SHT31;51487;52.266;10.542;2022-10-16T03:19:58;14.27;93.52
64961;SHT31;51487;52.266;10.542;2022-10-16T03:22:23;14.20;93.46
64961;SHT31;51487;52.266;10.542;2022-10-16T03:24:49;14.14;93.52
64961;SHT31;51487;52.266;10.542;2022-10-16T03:27:15;14.10;93.63
64961;SHT31;51487;52.266;10.542;2022-10-16T03:29:40;14.07;94.44
64961;SHT31;51487;52.266;10.542;2022-10-16T03:32:06;14.12;94.69
64961;SHT31;51487;52.266;10.542;2022-10-16T03:34:31;14.03;94.68
64961;SHT31;51487;52.266;10.542;2022-10-16T03:36:57;13.97;94.34
64961;SHT31;51487;52.266;10.542;2022-10-16T03:39:22;13.90;94.09
64961;SHT31;51487;52.266;10.542;2022-10-16T03:41:48;13.87;93.96
64961;SHT31;51487;52.266;10.542;2022-10-16T03:44:13;13.83;94.40
64961;SHT31;51487;52.266;10.542;2022-10-16T03:46:39;13.80;95.37
64961;SHT31;51487;52.266;10.542;2022-10-16T03:49:04;13.77;95.00
64961;SHT31;51487;52.266;10.542;2022-10-16T03:51:30;13.77;95.24
64961;SHT31;51487;52.266;10.542;2022-10-16T03:53:56;13.72;95.31
64961;SHT31;51487;52.266;10.542;2022-10-16T03:56:21;13.65;95.59
64961;SHT31;51487;52.266;10.542;2022-10-16T03:58:47;13.62;95.59
64961;SHT31;51487;52.266;10.542;2022-10-16T04:01:12;13.62;95.35
64961;SHT31;51487;52.266;10.542;2022-10-16T04:03:38;13.59;95.35
64961;SHT31;51487;52.266;10.542;2022-10-16T04:06:03;13.65;95.63
64961;SHT31;51487;52.266;10.542;2022-10-16T04:08:29;13.58;95.38
64961;SHT31;51487;52.266;10.542;2022-10-16T04:10:54;13.55;95.57
64961;SHT31;51487;52.266;10.542;2022-10-16T04:13:20;13.54;95.38
64961;SHT31;51487;52.266;10.542;2022-10-16T04:15:46;13.52;95.50
64961;SHT31;51487;52.266;10.542;2022-10-16T04:18:12;13.52;95.30
64961;SHT31;51487;52.266;10.542;2022-10-16T04:20:37;13.55;95.74
64961;SHT31;51487;52.266;10.542;2022-10-16T04:23:03;13.52;95.56
64961;SHT31;51487;52.266;10.542;2022-10-16T04:25:30;13.54;95.74
64961;SHT31;51487;52.266;10.542;2022-10-16T04:27:55;13.55;95.90
64961;SHT31;51487;52.266;10.542;2022-10-16T04:30:22;13.56;95.51
64961;SHT31;51487;52.266;10.542;2022-10-16T04:32:50;13.56;95.33
64961;SHT31;51487;52.266;10.542;2022-10-16T04:35:17;13.56;95.43
64961;SHT31;51487;52.266;10.542;2022-10-16T04:37:43;13.55;95.32
64961;SHT31;51487;52.266;10.542;2022-10-16T04:40:09;13.58;95.41
64961;SHT31;51487;52.266;10.542;2022-10-16T04:42:34;13.55;95.28
64961;SHT31;51487;52.266;10.542;2022-10-16T04:45:00;13.52;95.45
64961;SHT31;51487;52.266;10.542;2022-10-16T04:47:25;13.56;95.54
64961;SHT31;51487;52.266;10.542;2022-10-16T04:49:51;13.56;95.65
64961;SHT31;51487;52.266;10.542;2022-10-16T04:52:16;13.62;95.49
64961;SHT31;51487;52.266;10.542;2022-10-16T04:54:44;13.69;95.72
64961;SHT31;51487;52.266;10.542;2022-10-16T04:57:11;13.69;95.47
64961;SHT31;51487;52.266;10.542;2022-10-16T04:59:36;13.69;95.42
64961;SHT31;51487;52.266;10.542;2022-10-16T05:02:02;13.70;95.70
64961;SHT31;51487;52.266;10.542;2022-10-16T05:04:28;13.73;95.41
64961;SHT31;51487;52.266;10.542;2022-10-16T05:06:53;13.82;95.27
64961;SHT31;51487;52.266;10.542;2022-10-16T05:09:19;13.79;95.40
64961;SHT31;51487;52.266;10.542;2022-10-16T05:11:44;13.72;95.51
64961;SHT31;51487;52.266;10.542;2022-10-16T05:14:10;13.72;95.69
64961;SHT31;51487;52.266;10.542;2022-10-16T05:16:35;13.73;95.76
64961;SHT31;51487;52.266;10.542;2022-10-16T05:19:01;13.77;95.90
64961;SHT31;51487;52.266;10.542;2022-10-16T05:21:26;13.76;95.89
64961;SHT31;51487;52.266;10.542;2022-10-16T05:23:53;13.77;95.95
64961;SHT31;51487;52.266;10.542;2022-10-16T05:26:19;13.90;95.91
64961;SHT31;51487;52.266;10.542;2022-10-16T05:28:46;13.95;95.80
64961;SHT31;51487;52.266;10.542;2022-10-16T05:31:11;13.89;95.84
64961;SHT31;51487;52.266;10.542;2022-10-16T05:33:37;13.87;95.91
64961;SHT31;51487;52.266;10.542;2022-10-16T05:36:09;13.87;95.79
64961;SHT31;51487;52.266;10.542;2022-10-16T05:38:36;13.82;95.95
64961;SHT31;51487;52.266;10.542;2022-10-16T05:41:04;13.73;95.88
64961;SHT31;51487;52.266;10.542;2022-10-16T05:43:31;13.70;96.11
64961;SHT31;51487;52.266;10.542;2022-10-16T05:46:01;13.72;96.15
64961;SHT31;51487;52.266;10.542;2022-10-16T05:48:27;13.67;96.07
64961;SHT31;51487;52.266;10.542;2022-10-16T05:51:05;13.61;96.24
64961;SHT31;51487;52.266;10.542;2022-10-16T05:53:35;13.63;96.26
64961;SHT31;51487;52.266;10.542;2022-10-16T05:56:01;13.66;96.18
64961;SHT31;51487;52.266;10.542;2022-10-16T05:58:35;13.76;96.54
64961;SHT31;51487;52.266;10.542;2022-10-16T06:01:18;13.65;96.22
64961;SHT31;51487;52.266;10.542;2022-10-16T06:03:44;13.65;96.22
64961;SHT31;51487;52.266;10.542;2022-10-16T06:06:22;13.61;96.04
64961;SHT31;51487;52.266;10.542;2022-10-16T06:08:49;13.62;96.54
64961;SHT31;51487;52.266;10.542;2022-10-16T06:11:23;13.63;96.08
64961;SHT31;51487;52.266;10.542;2022-10-16T06:13:55;13.59;96.18
64961;SHT31;51487;52.266;10.542;2022-10-16T06:16:23;13.59;95.99
64961;SHT31;51487;52.266;10.542;2022-10-16T06:18:51;13.61;96.00
64961;SHT31;51487;52.266;10.542;2022-10-16T06:21:23;13.59;96.14
64961;SHT31;51487;52.266;10.542;2022-10-16T06:23:54;13.59;96.28
64961;SHT31;51487;52.266;10.542;2022-10-16T06:26:25;13.61;96.00
64961;SHT31;51487;52.266;10.542;2022-10-16T06:28:50;13.58;96.01
64961;SHT31;51487;52.266;10.542;2022-10-16T06:31:17;13.62;96.12
64961;SHT31;51487;52.266;10.542;2022-10-16T06:33:43;13.61;96.12
64961;SHT31;51487;52.266;10.542;2022-10-16T06:36:15;13.67;95.92
64961;SHT31;51487;52.266;10.542;2022-10-16T06:38:42;13.66;95.95
64961;SHT31;51487;52.266;10.542;2022-10-16T06:41:12;13.69;95.94
64961;SHT31;51487;52.266;10.542;2022-10-16T06:43:38;13.73;95.99
64961;SHT31;51487;52.266;10.542;2022-10-16T06:46:06;13.89;95.89
64961;SHT31;51487;52.266;10.542;2022-10-16T06:48:36;14.05;95.45
64961;SHT31;51487;52.266;10.542;2022-10-16T06:51:09;14.10;95.08
64961;SHT31;51487;52.266;10.542;2022-10-16T06:53:40;14.18;95.12
64961;SHT31;51487;52.266;10.542;2022-10-16T06:56:12;14.20;95.18
64961;SHT31;51487;52.266;10.542;2022-10-16T06:58:39;14.26;94.88
64961;SHT31;51487;52.266;10.542;2022-10-16T07:01:05;14.31;95.06
64961;SHT31;51487;52.266;10.542;2022-10-16T07:03:31;14.40;94.95
64961;SHT31;51487;52.266;10.542;2022-10-16T07:06:01;14.47;94.95
64961;SHT31;51487;52.266;10.542;2022-10-16T07:08:27;14.52;94.78
64961;SHT31;51487;52.266;10.542;2022-10-16T07:11:05;14.63;94.50
64961;SHT31;51487;52.266;10.542;2022-10-16T07:13:37;14.63;94.38
64961;SHT31;51487;52.266;10.542;2022-10-16T07:18:33;14.71;94.27
64961;SHT31;51487;52.266;10.542;2022-10-16T07:21:16;14.74;94.27
64961;SHT31;51487;52.266;10.542;2022-10-16T07:23:43;14.76;94.01
64961;SHT31;51487;52.266;10.542;2022-10-16T07:26:10;14.81;94.12
64961;SHT31;51487;52.266;10.542;2022-10-16T07:28:36;14.92;94.09
64961;SHT31;51487;52.266;10.542;2022-10-16T07:31:09;14.99;93.95
64961;SHT31;51487;52.266;10.542;2022-10-16T07:33:37;15.00;93.60
64961;SHT31;51487;52.266;10.542;2022-10-16T07:36:04;15.06;93.50
64961;SHT31;51487;52.266;10.542;2022-10-16T07:38:30;15.16;93.29
64961;SHT31;51487;52.266;10.542;2022-10-16T07:41:02;15.22;93.24
64961;SHT31;51487;52.266;10.542;2022-10-16T07:43:28;15.32;92.90
64961;SHT31;51487;52.266;10.542;2022-10-16T07:45:54;15.46;92.50
64961;SHT31;51487;52.266;10.542;2022-10-16T07:48:21;15.53;92.28
64961;SHT31;51487;52.266;10.542;2022-10-16T07:50:48;15.54;92.07
64961;SHT31;51487;52.266;10.542;2022-10-16T07:53:14;15.58;91.64
64961;SHT31;51487;52.266;10.542;2022-10-16T07:55:39;15.57;91.53
64961;SHT31;51487;52.266;10.542;2022-10-16T07:58:06;15.61;91.20
64961;SHT31;51487;52.266;10.542;2022-10-16T08:00:32;15.63;91.26
64961;SHT31;51487;52.266;10.542;2022-10-16T08:02:58;15.68;91.04
64961;SHT31;51487;52.266;10.542;2022-10-16T08:05:28;15.72;90.66
64961;SHT31;51487;52.266;10.542;2022-10-16T08:07:55;15.81;90.69
64961;SHT31;51487;52.266;10.542;2022-10-16T08:10:24;15.90;90.19
64961;SHT31;51487;52.266;10.542;2022-10-16T08:12:51;15.94;89.84
64961;SHT31;51487;52.266;10.542;2022-10-16T08:15:17;16.05;89.57
64961;SHT31;51487;52.266;10.542;2022-10-16T08:17:43;16.04;89.50
64961;SHT31;51487;52.266;10.542;2022-10-16T08:20:09;16.04;89.75
64961;SHT31;51487;52.266;10.542;2022-10-16T08:22:35;16.05;89.61
64961;SHT31;51487;52.266;10.542;2022-10-16T08:25:01;16.04;89.27
64961;SHT31;51487;52.266;10.542;2022-10-16T08:27:32;16.06;89.46
64961;SHT31;51487;52.266;10.542;2022-10-16T08:29:57;16.15;88.56
64961;SHT31;51487;52.266;10.542;2022-10-16T08:32:23;16.23;87.66
64961;SHT31;51487;52.266;10.542;2022-10-16T08:34:48;16.18;87.75
64961;SHT31;51487;52.266;10.542;2022-10-16T08:37:14;16.19;88.38
64961;SHT31;51487;52.266;10.542;2022-10-16T08:39:40;16.18;88.68
64961;SHT31;51487;52.266;10.542;2022-10-16T08:42:46;16.19;88.60
64961;SHT31;51487;52.266;10.542;2022-10-16T08:50:47;16.32;87.63
64961;SHT31;51487;52.266;10.542;2022-10-16T08:53:30;16.38;86.12
64961;SHT31;51487;52.266;10.542;2022-10-16T08:55:56;16.40;86.36
64961;SHT31;51487;52.266;10.542;2022-10-16T08:58:28;16.40;85.74
64961;SHT31;51487;52.266;10.542;2022-10-16T09:01:13;16.42;85.76
64961;SHT31;51487;52.266;10.542;2022-10-16T09:03:46;16.50;84.75
64961;SHT31;51487;52.266;10.542;2022-10-16T09:06:52;16.55;84.56
64961;SHT31;51487;52.266;10.542;2022-10-16T09:09:58;16.66;84.27
64961;SHT31;51487;52.266;10.542;2022-10-16T09:16:03;16.79;84.13
64961;SHT31;51487;52.266;10.542;2022-10-16T09:21:39;16.97;83.61
64961;SHT31;51487;52.266;10.542;2022-10-16T09:24:20;17.01;83.23
64961;SHT31;51487;52.266;10.542;2022-10-16T09:26:47;17.15;82.81
64961;SHT31;51487;52.266;10.542;2022-10-16T09:29:18;17.32;82.40
64961;SHT31;51487;52.266;10.542;2022-10-16T09:31:46;17.36;82.19
64961;SHT31;51487;52.266;10.542;2022-10-16T09:34:34;17.40;81.78
64961;SHT31;51487;52.266;10.542;2022-10-16T09:37:05;17.45;82.35
64961;SHT31;51487;52.266;10.542;2022-10-16T09:39:52;17.52;81.61
64961;SHT31;51487;52.266;10.542;2022-10-16T09:42:23;17.55;82.10
64961;SHT31;51487;52.266;10.542;2022-10-16T09:44:51;17.52;82.07
64961;SHT31;51487;52.266;10.542;2022-10-16T09:47:23;17.46;81.32
64961;SHT31;51487;52.266;10.542;2022-10-16T09:50:02;17.50;81.55
64961;SHT31;51487;52.266;10.542;2022-10-16T09:52:30;17.52;81.57
64961;SHT31;51487;52.266;10.542;2022-10-16T09:55:15;17.55;81.20
64961;SHT31;51487;52.266;10.542;2022-10-16T09:57:54;17.50;79.93
64961;SHT31;51487;52.266;10.542;2022-10-16T10:00:23;17.52;79.97
64961;SHT31;51487;52.266;10.542;2022-10-16T10:02:49;17.46;80.83
64961;SHT31;51487;52.266;10.542;2022-10-16T10:05:24;17.40;80.86
64961;SHT31;51487;52.266;10.542;2022-10-16T10:08:02;17.45;80.43
64961;SHT31;51487;52.266;10.542;2022-10-16T10:10:37;17.42;80.71
64961;SHT31;51487;52.266;10.542;2022-10-16T10:13:19;17.38;80.53
64961;SHT31;51487;52.266;10.542;2022-10-16T10:15:45;17.28;80.59
64961;SHT31;51487;52.266;10.542;2022-10-16T10:18:22;17.28;79.92
64961;SHT31;51487;52.266;10.542;2022-10-16T10:21:01;17.36;80.25
64961;SHT31;51487;52.266;10.542;2022-10-16T10:23:29;17.36;80.04
64961;SHT31;51487;52.266;10.542;2022-10-16T10:26:12;17.36;80.21
64961;SHT31;51487;52.266;10.542;2022-10-16T10:32:01;17.50;79.27
64961;SHT31;51487;52.266;10.542;2022-10-16T10:44:41;17.70;77.95
64961;SHT31;51487;52.266;10.542;2022-10-16T11:02:21;18.03;74.34
64961;SHT31;51487;52.266;10.542;2022-10-16T11:04:57;18.18;72.47
64961;SHT31;51487;52.266;10.542;2022-10-16T11:07:30;18.11;72.86
64961;SHT31;51487;52.266;10.542;2022-10-16T11:10:22;18.11;70.79
64961;SHT31;51487;52.266;10.542;2022-10-16T11:12:58;18.17;68.68
64961;SHT31;51487;52.266;10.542;2022-10-16T11:15:35;18.10;67.95
64961;SHT31;51487;52.266;10.542;2022-10-16T11:20:51;17.93;69.23
64961;SHT31;51487;52.266;10.542;2022-10-16T11:23:51;17.89;69.01
64961;SHT31;51487;52.266;10.542;2022-10-16T11:26:28;17.99;67.70
64961;SHT31;51487;52.266;10.542;2022-10-16T11:28:56;18.00;67.66
64961;SHT31;51487;52.266;10.542;2022-10-16T11:31:47;18.03;66.63
64961;SHT31;51487;52.266;10.542;2022-10-16T11:34:38;18.04;67.28
64961;SHT31;51487;52.266;10.542;2022-10-16T11:37:37;18.03;68.13
64961;SHT31;51487;52.266;10.542;2022-10-16T11:40:32;18.08;67.66
64961;SHT31;51487;52.266;10.542;2022-10-16T11:43:12;18.16;67.65
64961;SHT31;51487;52.266;10.542;2022-10-16T11:45:49;18.21;67.66
64961;SHT31;51487;52.266;10.542;2022-10-16T11:49:00;18.18;67.64
64961;SHT31;51487;52.266;10.542;2022-10-16T11:57:48;18.33;67.82
64961;SHT31;51487;52.266;10.542;2022-10-16T12:03:04;18.23;68.30
64961;SHT31;51487;52.266;10.542;2022-10-16T12:08:38;18.17;68.03
64961;SHT31;51487;52.266;10.542;2022-10-16T12:17:25;18.20;68.91
64961;SHT31;51487;52.266;10.542;2022-10-16T12:20:20;18.24;69.10
64961;SHT31;51487;52.266;10.542;2022-10-16T12:22:51;18.36;68.54
64961;SHT31;51487;52.266;10.542;2022-10-16T12:25:28;18.54;68.46
64961;SHT31;51487;52.266;10.542;2022-10-16T12:30:41;18.55;68.49
64961;SHT31;51487;52.266;10.542;2022-10-16T12:33:28;18.52;68.08
64961;SHT31;51487;52.266;10.542;2022-10-16T12:35:56;18.47;68.47
64961;SHT31;51487;52.266;10.542;2022-10-16T12:38:46;18.43;68.26
64961;SHT31;51487;52.266;10.542;2022-10-16T12:41:12;18.40;68.82
64961;SHT31;51487;52.266;10.542;2022-10-16T12:43:46;18.34;69.02
64961;SHT31;51487;52.266;10.542;2022-10-16T12:48:42;18.40;68.16
64961;SHT31;51487;52.266;10.542;2022-10-16T12:59:57;18.51;67.77
64961;SHT31;51487;52.266;10.542;2022-10-16T13:02:49;18.57;67.74
64961;SHT31;51487;52.266;10.542;2022-10-16T13:05:50;18.48;67.63
64961;SHT31;51487;52.266;10.542;2022-10-16T13:14:49;18.43;68.15
64961;SHT31;51487;52.266;10.542;2022-10-16T13:20:50;18.38;67.64
64961;SHT31;51487;52.266;10.542;2022-10-16T13:29:04;18.27;67.16
64961;SHT31;51487;52.266;10.542;2022-10-16T13:31:31;18.26;67.11
64961;SHT31;51487;52.266;10.542;2022-10-16T13:33:59;18.23;67.23
64961;SHT31;51487;52.266;10.542;2022-10-16T13:36:48;18.16;67.28
64961;SHT31;51487;52.266;10.542;2022-10-16T13:39:28;18.20;67.27
64961;SHT31;51487;52.266;10.542;2022-10-16T13:42:26;18.20;67.40
64961;SHT31;51487;52.266;10.542;2022-10-16T13:44:54;18.28;67.07
64961;SHT31;51487;52.266;10.542;2022-10-16T13:47:25;18.20;67.75
64961;SHT31;51487;52.266;10.542;2022-10-16T13:50:05;18.16;67.59
64961;SHT31;51487;52.266;10.542;2022-10-16T13:52:31;18.08;68.35
64961;SHT31;51487;52.266;10.542;2022-10-16T13:54:56;18.17;67.24
64961;SHT31;51487;52.266;10.542;2022-10-16T13:57:24;18.11;68.43
64961;SHT31;51487;52.266;10.542;2022-10-16T13:59:51;18.18;67.41
64961;SHT31;51487;52.266;10.542;2022-10-16T14:02:32;18.24;67.85
64961;SHT31;51487;52.266;10.542;2022-10-16T14:05:02;18.21;66.96
64961;SHT31;51487;52.266;10.542;2022-10-16T14:07:32;18.24;67.15
64961;SHT31;51487;52.266;10.542;2022-10-16T14:10:06;18.34;66.99
64961;SHT31;51487;52.266;10.542;2022-10-16T14:12:32;18.38;67.98
64961;SHT31;51487;52.266;10.542;2022-10-16T14:14:59;18.43;67.47
64961;SHT31;51487;52.266;10.542;2022-10-16T14:17:33;18.45;67.44
64961;SHT31;51487;52.266;10.542;2022-10-16T14:20:03;18.38;67.92
64961;SHT31;51487;52.266;10.542;2022-10-16T14:22:34;18.34;67.43
64961;SHT31;51487;52.266;10.542;2022-10-16T14:25:23;18.48;66.51
64961;SHT31;51487;52.266;10.542;2022-10-16T14:28:01;18.62;65.34
64961;SHT31;51487;52.266;10.542;2022-10-16T14:30:29;18.58;67.02
64961;SHT31;51487;52.266;10.542;2022-10-16T14:33:05;18.54;67.44
64961;SHT31;51487;52.266;10.542;2022-10-16T14:35:38;18.64;66.11
64961;SHT31;51487;52.266;10.542;2022-10-16T14:38:18;18.57;66.99
64961;SHT31;51487;52.266;10.542;2022-10-16T14:40:48;18.57;65.92
64961;SHT31;51487;52.266;10.542;2022-10-16T14:43:24;18.55;66.06
64961;SHT31;51487;52.266;10.542;2022-10-16T14:45:56;18.55;67.16
64961;SHT31;51487;52.266;10.542;2022-10-16T14:48:23;18.62;67.09
64961;SHT31;51487;52.266;10.542;2022-10-16T14:50:49;18.59;66.84
64961;SHT31;51487;52.266;10.542;2022-10-16T14:53:16;18.59;67.05
64961;SHT31;51487;52.266;10.542;2022-10-16T14:55:42;18.57;65.54
64961;SHT31;51487;52.266;10.542;2022-10-16T14:58:22;18.59;66.25
64961;SHT31;51487;52.266;10.542;2022-10-16T15:00:49;18.51;66.55
64961;SHT31;51487;52.266;10.542;2022-10-16T15:03:15;18.55;66.25
64961;SHT31;51487;52.266;10.542;2022-10-16T15:05:41;18.57;65.96
64961;SHT31;51487;52.266;10.542;2022-10-16T15:08:06;18.51;66.17
64961;SHT31;51487;52.266;10.542;2022-10-16T15:10:38;18.48;66.51
64961;SHT31;51487;52.266;10.542;2022-10-16T15:13:04;18.55;65.85
64961;SHT31;51487;52.266;10.542;2022-10-16T15:15:40;18.43;67.47
64961;SHT31;51487;52.266;10.542;2022-10-16T15:18:07;18.34;67.50
64961;SHT31;51487;52.266;10.542;2022-10-16T15:20:38;18.26;67.70
64961;SHT31;51487;52.266;10.542;2022-10-16T15:23:20;18.03;68.35
64961;SHT31;51487;52.266;10.542;2022-10-16T15:25:47;17.93;68.64
64961;SHT31;51487;52.266;10.542;2022-10-16T15:28:15;17.86;68.97
64961;SHT31;51487;52.266;10.542;2022-10-16T15:30:41;17.77;69.81
64961;SHT31;51487;52.266;10.542;2022-10-16T15:33:23;17.66;69.94
64961;SHT31;51487;52.266;10.542;2022-10-16T15:35:52;17.61;70.74
64961;SHT31;51487;52.266;10.542;2022-10-16T15:38:20;17.45;70.66
64961;SHT31;51487;52.266;10.542;2022-10-16T15:40:48;17.36;71.25
64961;SHT31;51487;52.266;10.542;2022-10-16T15:43:14;17.31;71.28
64961;SHT31;51487;52.266;10.542;2022-10-16T15:45:40;17.24;71.15
64961;SHT31;51487;52.266;10.542;2022-10-16T15:48:06;17.21;71.14
64961;SHT31;51487;52.266;10.542;2022-10-16T15:50:32;17.18;71.11
64961;SHT31;51487;52.266;10.542;2022-10-16T15:52:58;17.10;71.52
64961;SHT31;51487;52.266;10.542;2022-10-16T15:55:23;17.06;71.72
64961;SHT31;51487;52.266;10.542;2022-10-16T15:57:49;16.95;72.19
64961;SHT31;51487;52.266;10.542;2022-10-16T16:00:18;16.88;72.53
64961;SHT31;51487;52.266;10.542;2022-10-16T16:02:52;16.84;72.59
64961;SHT31;51487;52.266;10.542;2022-10-16T16:05:20;16.80;72.59
64961;SHT31;51487;52.266;10.542;2022-10-16T16:07:46;16.71;72.91
64961;SHT31;51487;52.266;10.542;2022-10-16T16:10:12;16.69;72.99
64961;SHT31;51487;52.266;10.542;2022-10-16T16:12:38;16.59;73.41
64961;SHT31;51487;52.266;10.542;2022-10-16T16:15:06;16.53;73.51
64961;SHT31;51487;52.266;10.542;2022-10-16T16:17:34;16.52;73.85
64961;SHT31;51487;52.266;10.542;2022-10-16T16:20:00;16.45;74.11
64961;SHT31;51487;52.266;10.542;2022-10-16T16:22:26;16.39;74.46
64961;SHT31;51487;52.266;10.542;2022-10-16T16:24:52;16.30;74.67
64961;SHT31;51487;52.266;10.542;2022-10-16T16:27:18;16.26;75.00
64961;SHT31;51487;52.266;10.542;2022-10-16T16:29:45;16.25;74.95
64961;SHT31;51487;52.266;10.542;2022-10-16T16:32:11;16.21;74.60
64961;SHT31;51487;52.266;10.542;2022-10-16T16:34:36;16.18;74.84
64961;SHT31;51487;52.266;10.542;2022-10-16T16:37:02;16.12;75.06
64961;SHT31;51487;52.266;10.542;2022-10-16T16:39:27;16.04;75.41
64961;SHT31;51487;52.266;10.542;2022-10-16T16:41:56;16.00;75.65
64961;SHT31;51487;52.266;10.542;2022-10-16T16:44:24;15.95;75.78
64961;SHT31;51487;52.266;10.542;2022-10-16T16:46:49;15.92;76.15
64961;SHT31;51487;52.266;10.542;2022-10-16T16:49:15;15.82;77.14
64961;SHT31;51487;52.266;10.542;2022-10-16T16:51:41;15.77;78.18
64961;SHT31;51487;52.266;10.542;2022-10-16T16:54:08;15.67;79.00
64961;SHT31;51487;52.266;10.542;2022-10-16T16:56:35;15.55;79.50
64961;SHT31;51487;52.266;10.542;2022-10-16T16:59:01;15.47;79.49
64961;SHT31;51487;52.266;10.542;2022-10-16T17:01:28;15.37;80.15
64961;SHT31;51487;52.266;10.542;2022-10-16T17:03:56;15.34;80.67
64961;SHT31;51487;52.266;10.542;2022-10-16T17:06:27;15.36;80.75
64961;SHT31;51487;52.266;10.542;2022-10-16T17:08:53;15.36;81.13
64961;SHT31;51487;52.266;10.542;2022-10-16T17:11:29;15.24;81.60
64961;SHT31;51487;52.266;10.542;2022-10-16T17:13:58;15.16;81.75
64961;SHT31;51487;52.266;10.542;2022-10-16T17:16:28;15.06;81.88
64961;SHT31;51487;52.266;10.542;2022-10-16T17:18:53;14.96;82.08
64961;SHT31;51487;52.266;10.542;2022-10-16T17:21:19;14.92;82.47